createdAt,value
2023-02-07T00:01:37.059Z,156.68
2023-02-07T00:04:06.400Z,154.90
2023-02-07T00:06:36.549Z,145.48
2023-02-07T00:09:08.570Z,136.25
2023-02-07T00:11:40.455Z,147.57
2023-02-07T00:14:10.688Z,138.02
2023-02-07T00:16:39.106Z,148.68
2023-02-07T00:19:07.787Z,135.93
2023-02-07T00:21:36.163Z,146.32
2023-02-07T00:24:06.745Z,153.23
2023-02-07T00:26:35.290Z,155.32
2023-02-07T00:29:03.934Z,141.93
2023-02-07T00:31:33.972Z,146.65
2023-02-07T00:34:04.614Z,142.90
2023-02-07T00:36:34.383Z,144.15
2023-02-07T00:39:07.665Z,139.63
2023-02-07T00:41:36.230Z,166.43
2023-02-07T00:44:05.185Z,165.80
2023-02-07T00:46:33.789Z,170.30
2023-02-07T00:49:03.094Z,188.05
2023-02-07T00:51:31.502Z,199.55
2023-02-07T00:54:00.548Z,209.20
2023-02-07T00:56:31.498Z,199.68
2023-02-07T00:59:00.222Z,194.95
2023-02-07T01:01:29.003Z,186.23
2023-02-07T01:03:57.868Z,180.90
2023-02-07T01:06:28.123Z,200.18
2023-02-07T01:08:58.099Z,195.80
2023-02-07T01:11:27.215Z,198.30
2023-02-07T01:13:57.147Z,191.55
2023-02-07T01:16:29.185Z,194.50
2023-02-07T01:18:58.162Z,192.00
2023-02-07T01:21:27.948Z,178.93
2023-02-07T01:23:57.360Z,187.20
2023-02-07T01:26:25.925Z,177.98
2023-02-07T01:28:55.193Z,198.07
2023-02-07T01:31:25.352Z,203.75
2023-02-07T01:33:57.437Z,196.63
2023-02-07T01:36:27.054Z,205.95
2023-02-07T01:38:56.133Z,188.13
2023-02-07T01:41:26.635Z,193.48
2023-02-07T01:43:57.390Z,174.93
2023-02-07T01:48:57.468Z,175.50
2023-02-07T01:51:27.463Z,166.10
2023-02-07T01:53:57.606Z,170.57
2023-02-07T01:56:31.892Z,165.23
2023-02-07T01:59:02.836Z,167.13
2023-02-07T02:01:32.849Z,155.70
2023-02-07T02:04:01.318Z,158.60
2023-02-07T02:06:31.989Z,165.93
2023-02-07T02:09:02.118Z,170.52
2023-02-07T02:11:51.192Z,174.82
2023-02-07T02:14:31.667Z,183.23
2023-02-07T02:17:07.988Z,190.85
2023-02-07T02:19:57.425Z,199.20
2023-02-07T02:22:50.901Z,187.10
2023-02-07T02:25:42.672Z,207.98
2023-02-07T02:28:42.492Z,200.57
2023-02-07T02:31:21.988Z,201.13
2023-02-07T02:33:53.520Z,212.68
2023-02-07T02:36:28.774Z,216.35
2023-02-07T02:39:03.558Z,218.90
2023-02-07T02:41:34.309Z,218.65
2023-02-07T02:46:36.003Z,219.50
2023-02-07T02:49:07.438Z,222.38
2023-02-07T02:54:04.242Z,193.15
2023-02-07T02:56:45.249Z,196.63
2023-02-07T03:01:58.928Z,192.95
2023-02-07T03:04:51.334Z,196.68
2023-02-07T03:07:34.268Z,183.68
2023-02-07T03:10:08.896Z,181.82
2023-02-07T03:12:43.386Z,182.80
2023-02-07T03:15:18.528Z,178.98
2023-02-07T03:17:49.161Z,177.38
2023-02-07T03:20:23.598Z,182.10
2023-02-07T03:22:53.074Z,160.05
2023-02-07T03:25:22.621Z,164.95
2023-02-07T03:27:51.182Z,176.90
2023-02-07T03:30:22.344Z,177.05
2023-02-07T03:32:52.932Z,156.35
2023-02-07T03:35:25.761Z,157.55
2023-02-07T03:37:56.629Z,155.73
2023-02-07T03:42:56.424Z,159.82
2023-02-07T03:45:25.486Z,149.50
2023-02-07T03:47:53.854Z,158.50
2023-02-07T03:50:24.594Z,154.02
2023-02-07T03:52:52.788Z,160.00
2023-02-07T03:55:21.548Z,163.65
2023-02-07T03:57:49.788Z,168.65
2023-02-07T04:00:18.747Z,169.85
2023-02-07T04:02:47.227Z,174.20
2023-02-07T04:05:15.841Z,180.40
2023-02-07T04:07:46.134Z,187.05
2023-02-07T04:10:14.844Z,212.35
2023-02-07T04:12:43.282Z,210.68
2023-02-07T04:15:12.954Z,222.00
2023-02-07T04:17:41.271Z,224.95
2023-02-07T04:20:12.680Z,223.13
2023-02-07T04:22:40.951Z,218.40
2023-02-07T04:25:11.138Z,221.30
2023-02-07T04:27:39.467Z,215.35
2023-02-07T04:30:09.093Z,219.70
2023-02-07T04:32:37.918Z,214.50
2023-02-07T04:35:06.995Z,210.45
2023-02-07T04:37:35.464Z,219.48
2023-02-07T04:40:04.382Z,209.30
2023-02-07T04:42:34.123Z,214.05
2023-02-07T04:45:03.018Z,204.57
2023-02-07T04:47:31.498Z,217.68
2023-02-07T04:50:00.238Z,209.27
2023-02-07T04:52:28.612Z,201.40
2023-02-07T04:54:57.311Z,193.98
2023-02-07T04:57:25.654Z,208.88
2023-02-07T04:59:55.460Z,214.88
2023-02-07T05:02:24.430Z,213.70
2023-02-07T05:04:53.015Z,214.40
2023-02-07T05:07:21.610Z,212.60
2023-02-07T05:09:50.159Z,215.02
2023-02-07T05:12:18.402Z,194.32
2023-02-07T05:14:47.020Z,214.95
2023-02-07T05:17:16.873Z,197.23
2023-02-07T05:19:45.501Z,202.07
2023-02-07T05:22:13.792Z,193.13
2023-02-07T05:24:42.333Z,217.68
2023-02-07T05:27:10.714Z,244.75
2023-02-07T05:29:39.401Z,235.00
2023-02-07T05:32:25.446Z,226.25
2023-02-07T05:34:55.422Z,227.63
2023-02-07T05:37:23.847Z,234.65
2023-02-07T05:39:52.553Z,218.05
2023-02-07T05:42:20.851Z,221.20
2023-02-07T05:44:49.773Z,214.68
2023-02-07T05:47:18.142Z,231.30
2023-02-07T05:49:46.908Z,255.95
2023-02-07T05:52:16.555Z,228.77
2023-02-07T05:54:45.192Z,235.88
2023-02-07T05:57:13.481Z,220.70
2023-02-07T05:59:42.041Z,223.00
2023-02-07T06:02:10.502Z,236.85
2023-02-07T06:04:39.238Z,246.40
2023-02-07T06:07:07.491Z,259.33
2023-02-07T06:09:37.618Z,283.52
2023-02-07T06:12:06.492Z,292.10
2023-02-07T06:14:35.442Z,279.63
2023-02-07T06:17:03.756Z,287.95
2023-02-07T06:19:32.307Z,276.60
2023-02-07T06:22:01.020Z,285.73
2023-02-07T06:24:29.535Z,501.45
2023-02-07T06:26:59.493Z,476.38
2023-02-07T06:29:28.249Z,366.25
2023-02-07T06:31:56.845Z,263.88
2023-02-07T06:34:25.810Z,226.18
2023-02-07T06:36:54.180Z,221.68
2023-02-07T06:39:22.993Z,233.07
2023-02-07T06:41:51.374Z,224.88
2023-02-07T06:44:21.204Z,236.45
2023-02-07T06:46:49.507Z,233.05
2023-02-07T06:49:18.029Z,230.40
2023-02-07T06:51:46.473Z,225.15
2023-02-07T06:54:15.040Z,241.07
2023-02-07T06:56:43.281Z,229.57
2023-02-07T06:59:12.096Z,208.10
2023-02-07T07:01:42.319Z,255.13
2023-02-07T07:04:11.136Z,271.95
2023-02-07T07:06:39.709Z,242.20
2023-02-07T07:09:08.455Z,227.82
2023-02-07T07:11:39.186Z,261.38
2023-02-07T07:14:07.695Z,222.35
2023-02-07T07:16:35.990Z,222.52
2023-02-07T07:19:05.988Z,316.40
2023-02-07T07:21:34.316Z,340.50
2023-02-07T07:24:02.804Z,344.45
2023-02-07T07:26:46.597Z,357.38
2023-02-07T07:29:17.228Z,381.67
2023-02-07T07:31:45.706Z,450.38
2023-02-07T07:34:16.093Z,347.30
2023-02-07T07:36:44.583Z,245.50
2023-02-07T07:39:14.764Z,242.95
2023-02-07T07:41:42.983Z,210.18
2023-02-07T07:44:11.797Z,207.02
2023-02-07T07:46:40.209Z,210.48
2023-02-07T07:49:09.062Z,198.38
2023-02-07T07:51:39.654Z,215.93
2023-02-07T07:54:08.504Z,198.27
2023-02-07T07:56:36.774Z,207.00
2023-02-07T07:59:05.927Z,219.60
2023-02-07T08:01:37.030Z,204.70
2023-02-07T08:04:06.462Z,238.70
2023-02-07T08:06:34.738Z,219.00
2023-02-07T08:09:05.383Z,245.00
2023-02-07T08:11:33.837Z,248.60
2023-02-07T08:14:02.457Z,215.48
2023-02-07T08:16:30.920Z,226.68
2023-02-07T08:18:59.527Z,214.68
2023-02-07T08:21:28.083Z,216.00
2023-02-07T08:23:56.707Z,214.18
2023-02-07T08:26:26.529Z,228.13
2023-02-07T08:28:55.269Z,236.35
2023-02-07T08:31:23.675Z,226.98
2023-02-07T08:33:52.548Z,222.35
2023-02-07T08:36:20.989Z,203.55
2023-02-07T08:38:49.497Z,200.50
2023-02-07T08:41:17.921Z,190.68
2023-02-07T08:43:48.094Z,174.27
2023-02-07T08:46:16.621Z,184.65
2023-02-07T08:48:45.288Z,183.63
2023-02-07T08:51:13.669Z,184.88
2023-02-07T08:53:42.240Z,189.07
2023-02-07T08:56:11.155Z,187.23
2023-02-07T08:58:41.102Z,197.07
2023-02-07T09:01:11.665Z,182.18
2023-02-07T09:03:40.522Z,195.55
2023-02-07T09:06:10.721Z,187.18
2023-02-07T09:08:39.516Z,197.43
2023-02-07T09:11:09.447Z,187.32
2023-02-07T09:13:38.608Z,177.75
2023-02-07T09:16:07.175Z,181.15
2023-02-07T09:18:37.195Z,179.35
2023-02-07T09:21:06.218Z,174.68
2023-02-07T09:23:35.934Z,164.65
2023-02-07T09:26:06.669Z,165.63
2023-02-07T09:28:36.335Z,170.25
2023-02-07T09:31:09.956Z,164.35
2023-02-07T09:33:40.332Z,162.38
2023-02-07T09:36:19.361Z,168.55
2023-02-07T09:38:49.190Z,176.82
2023-02-07T09:41:23.339Z,183.25
2023-02-07T09:44:01.208Z,188.25
2023-02-07T09:46:33.070Z,192.88
2023-02-07T09:49:06.386Z,213.63
2023-02-07T09:51:35.899Z,204.98
2023-02-07T09:54:07.163Z,214.57
2023-02-07T09:56:37.294Z,212.30
2023-02-07T09:59:07.834Z,216.53
2023-02-07T10:01:38.292Z,221.50
2023-02-07T10:04:23.499Z,231.10
2023-02-07T10:06:55.272Z,212.70
2023-02-07T10:09:28.282Z,240.60
2023-02-07T10:12:02.285Z,247.05
2023-02-07T10:14:57.990Z,236.05
2023-02-07T10:17:38.555Z,239.10
2023-02-07T10:20:26.530Z,236.07
2023-02-07T10:23:00.940Z,251.30
2023-02-07T10:25:37.193Z,260.55
2023-02-07T10:28:24.838Z,253.23
2023-02-07T10:30:55.849Z,236.88
2023-02-07T10:33:28.612Z,232.82
2023-02-07T10:35:59.047Z,225.95
2023-02-07T10:38:32.495Z,239.73
2023-02-07T10:41:04.861Z,225.23
2023-02-07T10:43:35.506Z,213.65
2023-02-07T10:46:07.094Z,217.63
2023-02-07T10:51:12.712Z,207.65
2023-02-07T10:53:54.530Z,205.95
2023-02-07T10:56:26.222Z,213.65
2023-02-07T10:58:55.345Z,215.15
2023-02-07T11:01:26.291Z,212.57
2023-02-07T11:03:55.464Z,224.57
2023-02-07T11:06:29.709Z,216.90
2023-02-07T11:09:21.103Z,208.73
2023-02-07T11:11:51.150Z,210.77
2023-02-07T11:14:26.674Z,220.80
2023-02-07T11:16:56.247Z,233.65
2023-02-07T11:19:27.033Z,221.85
2023-02-07T11:22:08.922Z,228.85
2023-02-07T11:24:38.767Z,209.25
2023-02-07T11:27:09.652Z,211.60
2023-02-07T11:29:45.760Z,214.90
2023-02-07T11:32:15.338Z,199.82
2023-02-07T11:34:49.542Z,208.27
2023-02-07T11:37:26.070Z,215.05
2023-02-07T11:39:56.659Z,204.00
2023-02-07T11:42:27.901Z,195.52
2023-02-07T11:44:56.464Z,184.20
2023-02-07T11:47:28.170Z,186.82
2023-02-07T11:49:58.503Z,169.25
2023-02-07T11:52:29.526Z,174.68
2023-02-07T11:54:59.544Z,178.95
2023-02-07T11:57:29.960Z,180.45
2023-02-07T12:00:08.147Z,175.23
2023-02-07T12:02:37.083Z,185.93
2023-02-07T12:05:15.419Z,186.43
2023-02-07T12:07:48.892Z,182.50
2023-02-07T12:10:22.985Z,187.10
2023-02-07T12:12:56.264Z,172.90
2023-02-07T12:15:28.915Z,164.68
2023-02-07T12:18:00.678Z,177.27
2023-02-07T12:20:31.596Z,169.10
2023-02-07T12:23:31.412Z,168.68
2023-02-07T12:25:56.229Z,150.18
2023-02-07T12:28:29.634Z,160.65
2023-02-07T12:31:04.036Z,149.70
2023-02-07T12:33:41.590Z,153.45
2023-02-07T12:36:13.954Z,154.32
2023-02-07T12:38:49.016Z,155.13
2023-02-07T12:41:21.334Z,159.43
2023-02-07T12:43:55.039Z,115.32
2023-02-07T12:46:29.896Z,144.50
2023-02-07T12:49:14.786Z,139.13
2023-02-07T12:51:53.379Z,109.03
2023-02-07T12:54:30.824Z,86.63
2023-02-07T12:57:02.503Z,54.10
2023-02-07T12:59:41.329Z,45.58
2023-02-07T13:02:25.494Z,42.25
2023-02-07T13:05:07.494Z,69.00
2023-02-07T13:07:43.235Z,122.32
2023-02-07T13:10:21.672Z,132.10
2023-02-07T13:12:55.435Z,117.25
2023-02-07T13:15:29.665Z,94.80
2023-02-07T13:18:05.106Z,63.38
2023-02-07T13:20:42.083Z,62.85
2023-02-07T13:23:16.286Z,53.70
2023-02-07T13:25:47.911Z,57.83
2023-02-07T13:28:20.894Z,50.85
2023-02-07T13:30:50.280Z,53.92
2023-02-07T13:33:29.898Z,47.13
2023-02-07T13:36:01.568Z,50.17
2023-02-07T13:38:40.991Z,47.25
2023-02-07T13:41:13.382Z,43.47
2023-02-07T13:44:01.635Z,47.35
2023-02-07T13:46:59.578Z,44.97
2023-02-07T13:49:50.295Z,44.28
2023-02-07T13:52:31.196Z,53.60
2023-02-07T13:55:06.918Z,56.67
2023-02-07T13:58:01.681Z,52.08
2023-02-07T14:00:32.570Z,77.65
2023-02-07T14:03:03.675Z,72.72
2023-02-07T14:05:34.150Z,54.83
2023-02-07T14:08:05.506Z,45.78
2023-02-07T14:10:48.159Z,53.92
2023-02-07T14:13:33.156Z,52.78
2023-02-07T14:16:08.025Z,43.03
2023-02-07T14:18:43.574Z,40.22
2023-02-07T14:21:34.488Z,39.05
2023-02-07T14:24:19.751Z,35.90
2023-02-07T14:27:01.175Z,39.83
2023-02-07T14:32:29.947Z,48.25
2023-02-07T14:35:04.772Z,46.97
2023-02-07T14:37:42.208Z,54.13
2023-02-07T14:40:21.478Z,54.92
2023-02-07T14:42:59.776Z,56.78
2023-02-07T14:45:32.287Z,63.50
2023-02-07T14:48:01.012Z,41.55
2023-02-07T14:50:33.615Z,42.33
2023-02-07T14:53:04.785Z,45.05
2023-02-07T14:58:05.019Z,41.95
2023-02-07T15:00:39.085Z,37.00
2023-02-07T15:03:13.962Z,48.00
2023-02-07T15:05:51.352Z,49.75
2023-02-07T15:08:21.297Z,47.80
2023-02-07T15:10:55.820Z,47.33
2023-02-07T15:13:27.515Z,45.65
2023-02-07T15:16:00.247Z,44.25
2023-02-07T15:18:30.808Z,49.35
2023-02-07T15:20:59.938Z,43.33
2023-02-07T15:23:29.910Z,46.15
2023-02-07T15:26:00.550Z,44.63
2023-02-07T15:28:30.512Z,47.85
2023-02-07T15:31:03.245Z,38.07
2023-02-07T15:33:36.970Z,35.28
2023-02-07T15:36:07.152Z,49.58
2023-02-07T15:38:35.621Z,57.00
2023-02-07T15:41:04.881Z,47.97
2023-02-07T15:43:34.885Z,52.63
2023-02-07T15:46:10.319Z,65.97
2023-02-07T15:48:49.828Z,78.25
2023-02-07T15:51:20.056Z,45.95
2023-02-07T15:53:51.449Z,38.25
2023-02-07T15:56:20.306Z,39.17
2023-02-07T15:58:49.761Z,39.50
2023-02-07T16:01:25.070Z,48.95
2023-02-07T16:03:56.216Z,46.58
2023-02-07T16:06:26.820Z,46.20
2023-02-07T16:08:57.354Z,60.53
2023-02-07T16:11:38.166Z,75.78
2023-02-07T16:14:18.477Z,48.33
2023-02-07T16:16:51.566Z,48.67
2023-02-07T16:19:21.841Z,44.78
2023-02-07T16:22:01.364Z,43.53
2023-02-07T16:24:29.670Z,46.15
2023-02-07T16:26:59.334Z,44.97
2023-02-07T16:29:28.281Z,44.83
2023-02-07T16:31:58.477Z,57.17
2023-02-07T16:34:26.836Z,66.57
2023-02-07T16:36:57.384Z,58.25
2023-02-07T16:39:25.668Z,65.53
2023-02-07T16:41:56.931Z,63.33
2023-02-07T16:44:26.426Z,64.47
2023-02-07T16:46:55.435Z,55.22
2023-02-07T16:49:27.075Z,53.20
2023-02-07T16:51:55.811Z,59.10
2023-02-07T16:54:24.132Z,51.17
2023-02-07T16:56:56.168Z,69.35
2023-02-07T16:59:27.217Z,69.07
2023-02-07T17:01:56.134Z,53.38
2023-02-07T17:04:26.117Z,70.85
2023-02-07T17:06:55.040Z,79.20
2023-02-07T17:09:24.655Z,66.40
2023-02-07T17:11:54.132Z,59.38
2023-02-07T17:14:23.043Z,64.72
2023-02-07T17:16:51.849Z,59.10
2023-02-07T17:19:24.093Z,72.25
2023-02-07T17:21:54.654Z,70.90
2023-02-07T17:24:23.081Z,74.43
2023-02-07T17:26:54.226Z,73.38
2023-02-07T17:29:22.712Z,67.80
2023-02-07T17:31:51.890Z,66.85
2023-02-07T17:34:20.374Z,68.22
2023-02-07T17:36:50.990Z,93.45
2023-02-07T17:39:20.956Z,71.93
2023-02-07T17:41:49.968Z,71.05
2023-02-07T17:44:21.485Z,82.65
2023-02-07T17:46:50.341Z,69.38
2023-02-07T17:49:19.097Z,73.75
2023-02-07T17:51:47.749Z,65.25
2023-02-07T17:54:16.205Z,62.50
2023-02-07T17:56:46.362Z,73.97
2023-02-07T17:59:23.980Z,68.35
2023-02-07T18:01:53.388Z,66.03
2023-02-07T18:04:21.983Z,65.32
2023-02-07T18:06:50.697Z,65.07
2023-02-07T18:09:20.351Z,66.03
2023-02-07T18:11:50.673Z,64.03
2023-02-07T18:14:18.997Z,62.13
2023-02-07T18:16:47.815Z,60.20
2023-02-07T18:19:17.764Z,68.68
2023-02-07T18:21:46.802Z,61.90
2023-02-07T18:24:15.586Z,65.82
2023-02-07T18:26:46.588Z,67.20
2023-02-07T18:29:17.141Z,62.22
2023-02-07T18:31:46.522Z,57.13
2023-02-07T18:34:14.855Z,62.65
2023-02-07T18:36:43.396Z,65.95
2023-02-07T18:39:12.422Z,64.13
2023-02-07T18:41:41.213Z,66.38
2023-02-07T18:44:09.636Z,71.55
2023-02-07T18:46:40.252Z,68.88
2023-02-07T18:49:08.837Z,69.57
2023-02-07T18:51:38.968Z,71.25
2023-02-07T18:54:07.569Z,68.70
2023-02-07T18:56:37.345Z,65.35
2023-02-07T18:59:06.046Z,65.20
2023-02-07T19:01:35.446Z,65.72
2023-02-07T19:04:05.751Z,67.13
2023-02-07T19:06:35.093Z,61.70
2023-02-07T19:09:03.588Z,68.55
2023-02-07T19:11:32.318Z,66.38
2023-02-07T19:14:00.666Z,70.65
2023-02-07T19:16:29.664Z,69.63
2023-02-07T19:19:02.226Z,67.60
2023-02-07T19:21:32.569Z,60.25
2023-02-07T19:24:05.664Z,62.13
2023-02-07T19:26:34.393Z,120.53
2023-02-07T19:29:05.373Z,71.50
2023-02-07T19:31:34.877Z,74.03
2023-02-07T19:34:03.403Z,79.80
2023-02-07T19:36:33.749Z,68.57
2023-02-07T19:39:02.418Z,63.85
2023-02-07T19:41:31.222Z,68.38
2023-02-07T19:43:59.743Z,60.80
2023-02-07T19:46:28.888Z,63.63
2023-02-07T19:48:57.173Z,64.43
2023-02-07T19:51:28.302Z,68.28
2023-02-07T19:53:58.191Z,68.20
2023-02-07T19:56:28.852Z,64.25
2023-02-07T19:58:57.043Z,66.63
2023-02-07T20:01:26.436Z,66.95
2023-02-07T20:03:55.833Z,62.00
2023-02-07T20:06:29.179Z,67.10
2023-02-07T20:08:59.778Z,64.78
2023-02-07T20:11:28.911Z,55.38
2023-02-07T20:14:03.279Z,62.85
2023-02-07T20:16:34.415Z,61.85
2023-02-07T20:19:05.582Z,65.95
2023-02-07T20:21:35.783Z,62.92
2023-02-07T20:24:06.604Z,58.08
2023-02-07T20:26:37.694Z,67.50
2023-02-07T20:29:09.564Z,69.20
2023-02-07T20:31:39.197Z,69.75
2023-02-07T20:34:07.981Z,67.63
2023-02-07T20:36:40.925Z,62.70
2023-02-07T20:39:12.750Z,67.05
2023-02-07T20:41:43.415Z,65.70
2023-02-07T20:44:13.876Z,67.82
2023-02-07T20:46:43.919Z,67.20
2023-02-07T20:49:14.578Z,62.15
2023-02-07T20:51:44.084Z,69.40
2023-02-07T20:54:13.911Z,70.85
2023-02-07T20:56:42.897Z,63.35
2023-02-07T20:59:15.660Z,61.35
2023-02-07T21:01:44.469Z,70.03
2023-02-07T21:04:12.897Z,67.88
2023-02-07T21:06:42.772Z,68.05
2023-02-07T21:09:11.967Z,69.72
2023-02-07T21:11:45.207Z,69.47
2023-02-07T21:14:15.625Z,70.07
2023-02-07T21:16:44.224Z,72.93
2023-02-07T21:19:12.637Z,66.75
2023-02-07T21:21:41.182Z,68.57
2023-02-07T21:24:09.616Z,74.88
2023-02-07T21:26:38.111Z,68.25
2023-02-07T21:29:08.222Z,72.70
2023-02-07T21:31:37.038Z,75.38
2023-02-07T21:34:05.475Z,80.47
2023-02-07T21:36:37.624Z,74.45
2023-02-07T21:39:09.259Z,72.38
2023-02-07T21:41:39.282Z,78.13
2023-02-07T21:44:09.107Z,78.20
2023-02-07T21:46:39.586Z,77.15
2023-02-07T21:49:10.330Z,70.97
2023-02-07T21:51:38.854Z,73.97
2023-02-07T21:54:08.060Z,84.93
2023-02-07T21:56:38.319Z,78.25
2023-02-07T21:59:09.639Z,74.63
2023-02-07T22:01:38.352Z,75.88
2023-02-07T22:04:10.385Z,75.93
2023-02-07T22:06:42.163Z,74.18
2023-02-07T22:09:12.585Z,73.00
2023-02-07T22:11:41.497Z,73.22
2023-02-07T22:14:12.504Z,72.85
2023-02-07T22:19:11.558Z,69.00
2023-02-07T22:21:40.627Z,73.20
2023-02-07T22:24:09.640Z,74.53
2023-02-07T22:26:38.114Z,74.00
2023-02-07T22:29:07.865Z,77.00
2023-02-07T22:31:39.147Z,75.53
2023-02-07T22:34:09.221Z,80.63
2023-02-07T22:36:39.439Z,76.38
2023-02-07T22:39:09.094Z,74.72
2023-02-07T22:41:37.783Z,71.35
2023-02-07T22:44:06.518Z,74.60
2023-02-07T22:46:35.134Z,81.45
2023-02-07T22:49:05.021Z,90.57
2023-02-07T22:51:35.777Z,82.67
2023-02-07T22:54:06.648Z,78.40
2023-02-07T22:56:36.586Z,90.38
2023-02-07T22:59:05.714Z,87.30
2023-02-07T23:01:36.695Z,82.45
2023-02-07T23:04:08.477Z,79.00
2023-02-07T23:06:37.477Z,89.88
2023-02-07T23:09:06.524Z,93.63
2023-02-07T23:11:35.446Z,87.43
2023-02-07T23:14:06.980Z,91.13
2023-02-07T23:16:36.630Z,93.38
2023-02-07T23:19:08.370Z,83.85
2023-02-07T23:21:37.047Z,89.60
2023-02-07T23:24:05.823Z,92.28
2023-02-07T23:26:35.541Z,102.13
2023-02-07T23:29:03.829Z,85.93
2023-02-07T23:31:32.522Z,114.05
2023-02-07T23:34:01.192Z,90.57
2023-02-07T23:36:31.206Z,79.88
2023-02-07T23:38:59.665Z,66.25
2023-02-07T23:41:28.450Z,64.65
2023-02-07T23:43:57.142Z,76.50
2023-02-07T23:46:25.844Z,74.97
2023-02-07T23:48:54.263Z,80.25
2023-02-07T23:51:23.112Z,84.38
2023-02-07T23:53:52.905Z,88.50
2023-02-07T23:56:22.923Z,79.95
2023-02-07T23:58:52.610Z,77.93
